Time,TemperatureF,DewpointF,PressureIn,WindDirection,WindDirectionDegrees,WindSpeedMPH,WindSpeedGustMPH,Humidity,HourlyPrecipIn,Conditions,Clouds,dailyrainin,SolarRadiationWatts/m^2,SoftwareType,DateUTC
2013-05-10 00:01:00,68.5,63.1,30.14,SSE,153,0.0,2.0,83,0.00,,CLR,0.00,0.00,VWS V14.01,2013-05-10 04:01:00,
2013-05-10 00:06:00,68.3,63.3,30.14,SSE,153,0.0,1.0,84,0.00,,CLR,0.00,0.00,VWS V14.01,2013-05-10 04:06:00,
2013-05-10 00:11:00,67.9,63.2,30.13,SSE,153,0.0,1.0,85,0.00,,CLR,0.00,0.00,VWS V14.01,2013-05-10 04:11:00,
2013-05-10 00:16:00,67.9,63.6,30.13,SSE,153,0.0,1.0,86,0.00,,CLR,0.00,0.00,VWS V14.01,2013-05-10 04:16:00,
2013-05-10 00:21:00,67.4,63.1,30.14,SSE,153,0.0,1.0,86,0.00,,CLR,0.00,0.00,VWS V14.01,2013-05-10 04:21:00,
2013-05-10 00:26:00,67.1,63.1,30.14,SSE,153,0.0,1.0,87,0.00,,CLR,0.00,0.00,VWS V14.01,2013-05-10 04:26:00,
2013-05-10 00:31:00,66.9,62.9,30.14,SSE,153,0.0,0.0,87,0.00,,CLR,0.00,0.00,VWS V14.01,2013-05-10 04:31:00,
2013-05-10 00:36:00,66.7,62.4,30.14,SSE,153,0.0,0.0,86,0.00,,CLR,0.00,0.00,VWS V14.01,2013-05-10 04:36:00,
2013-05-10 00:41:00,66.6,62.3,30.14,SSE,153,0.0,1.0,86,0.00,,CLR,0.00,0.00,VWS V14.01,2013-05-10 04:41:00,
2013-05-10 00:46:00,66.7,62.0,30.14,SSE,153,0.0,1.0,85,0.00,,CLR,0.00,0.00,VWS V14.01,2013-05-10 04:46:00,
2013-05-10 00:51:00,66.5,61.9,30.14,SSE,153,0.0,1.0,85,0.00,,CLR,0.00,0.00,VWS V14.01,2013-05-10 04:51:00,
2013-05-10 00:56:00,66.2,61.6,30.14,SSE,153,0.0,1.0,85,0.00,,CLR,0.00,0.00,VWS V14.01,2013-05-10 04:56:00,
2013-05-10 01:01:00,65.9,61.6,30.14,SSE,153,0.0,0.0,86,0.00,,CLR,0.00,0.00,VWS V14.01,2013-05-10 05:01:00,
2013-05-10 01:06:00,65.9,61.6,30.14,SSE,153,0.0,0.0,86,0.00,,CLR,0.00,0.00,VWS V14.01,2013-05-10 05:06:00,
2013-05-10 01:11:00,65.8,61.8,30.14,SSE,153,0.0,0.0,87,0.00,,CLR,0.00,0.00,VWS V14.01,2013-05-10 05:11:00,
2013-05-10 01:16:00,65.8,61.8,30.14,SSE,153,0.0,0.0,87,0.00,,CLR,0.00,0.00,VWS V14.01,2013-05-10 05:16:00,
2013-05-10 01:21:00,65.5,61.5,30.14,SSE,153,0.0,0.0,87,0.00,,CLR,0.00,0.00,VWS V14.01,2013-05-10 05:21:00,
2013-05-10 01:26:00,65.4,61.1,30.13,SSE,153,0.0,0.0,86,0.00,,CLR,0.00,0.00,VWS V14.01,2013-05-10 05:26:00,
2013-05-10 01:31:00,65.5,61.5,30.13,SSE,153,1.0,1.0,87,0.00,,CLR,0.00,0.00,VWS V14.01,2013-05-10 05:31:00,
2013-05-10 01:36:00,65.3,61.3,30.13,SSE,153,0.0,1.0,87,0.00,,CLR,0.00,0.00,VWS V14.01,2013-05-10 05:36:00,
2013-05-10 01:41:00,65.2,61.2,30.12,SSE,153,0.0,1.0,87,0.00,,CLR,0.00,0.00,VWS V14.01,2013-05-10 05:41:00,
2013-05-10 01:46:00,64.7,61.1,30.12,SSE,153,0.0,1.0,88,0.00,,CLR,0.00,0.00,VWS V14.01,2013-05-10 05:46:00,
2013-05-10 01:52:00,64.2,60.9,30.12,SSE,153,0.0,1.0,89,0.00,,CLR,0.00,0.00,VWS V14.01,2013-05-10 05:52:00,
2013-05-10 01:57:00,64.1,60.8,30.11,SSE,153,0.0,1.0,89,0.00,,CLR,0.00,0.00,VWS V14.01,2013-05-10 05:57:00,
2013-05-10 02:02:00,63.9,60.6,30.11,SSE,153,0.0,0.0,89,0.00,,CLR,0.00,0.00,VWS V14.01,2013-05-10 06:02:00,
2013-05-10 02:07:00,63.8,60.8,30.11,SSE,153,0.0,1.0,90,0.00,,CLR,0.00,0.00,VWS V14.01,2013-05-10 06:07:00,
2013-05-10 02:12:00,63.5,60.5,30.10,SSE,153,0.0,1.0,90,0.00,,CLR,0.00,0.00,VWS V14.01,2013-05-10 06:12:00,
2013-05-10 02:17:00,63.6,60.9,30.10,SSE,153,0.0,1.0,91,0.00,,CLR,0.00,0.00,VWS V14.01,2013-05-10 06:17:00,
2013-05-10 02:22:00,63.8,61.4,30.10,SSE,153,0.0,1.0,92,0.00,,CLR,0.00,0.00,VWS V14.01,2013-05-10 06:22:00,
2013-05-10 02:27:00,63.7,61.3,30.10,SSE,153,1.0,3.0,92,0.00,,CLR,0.00,0.00,VWS V14.01,2013-05-10 06:27:00,
2013-05-10 02:32:00,64.0,61.6,30.10,SSE,153,2.0,3.0,92,0.00,,CLR,0.00,0.00,VWS V14.01,2013-05-10 06:32:00,
2013-05-10 02:37:00,64.3,61.9,30.10,SSE,153,1.0,3.0,92,0.00,,CLR,0.00,0.00,VWS V14.01,2013-05-10 06:37:00,
2013-05-10 02:42:00,64.5,61.8,30.10,SSE,153,0.0,3.0,91,0.00,,CLR,0.00,0.00,VWS V14.01,2013-05-10 06:42:00,
2013-05-10 02:47:00,64.2,61.5,30.10,SSE,153,2.0,3.0,91,0.00,,CLR,0.00,0.00,VWS V14.01,2013-05-10 06:47:00,
2013-05-10 02:52:00,63.8,61.1,30.10,SSE,150,0.0,3.0,91,0.00,,CLR,0.00,0.00,VWS V14.01,2013-05-10 06:52:00,
2013-05-10 02:57:00,63.5,60.8,30.09,SSE,150,0.0,3.0,91,0.00,,CLR,0.00,0.00,VWS V14.01,2013-05-10 06:57:00,
2013-05-10 03:02:00,63.4,60.7,30.10,SSE,150,0.0,0.0,91,0.00,,CLR,0.00,0.00,VWS V14.01,2013-05-10 07:02:00,
2013-05-10 03:07:00,63.2,60.5,30.10,SSE,150,1.0,2.0,91,0.00,,CLR,0.00,0.00,VWS V14.01,2013-05-10 07:07:00,
2013-05-10 03:12:00,63.3,60.6,30.10,SSE,150,1.0,2.0,91,0.00,,CLR,0.00,0.00,VWS V14.01,2013-05-10 07:12:00,
2013-05-10 03:17:00,63.3,60.6,30.10,SSE,150,0.0,2.0,91,0.00,,CLR,0.00,0.00,VWS V14.01,2013-05-10 07:17:00,
2013-05-10 03:22:00,63.2,60.5,30.10,SSE,150,0.0,2.0,91,0.00,,CLR,0.00,0.00,VWS V14.01,2013-05-10 07:22:00,
2013-05-10 03:27:00,63.0,60.3,30.10,SSE,150,0.0,2.0,91,0.00,,CLR,0.00,0.00,VWS V14.01,2013-05-10 07:27:00,
2013-05-10 03:32:00,62.8,60.1,30.10,SSE,150,0.0,0.0,91,0.00,,CLR,0.00,0.00,VWS V14.01,2013-05-10 07:32:00,
2013-05-10 03:37:00,62.8,60.5,30.10,SSE,150,0.0,0.0,92,0.00,,CLR,0.00,0.00,VWS V14.01,2013-05-10 07:37:00,
2013-05-10 03:42:00,62.8,60.5,30.10,SSE,150,0.0,0.0,92,0.00,,CLR,0.00,0.00,VWS V14.01,2013-05-10 07:42:00,
2013-05-10 03:47:00,62.7,60.3,30.10,SSE,150,0.0,2.0,92,0.00,,CLR,0.00,0.00,VWS V14.01,2013-05-10 07:47:00,
2013-05-10 03:52:00,62.8,60.5,30.10,SSE,150,1.0,2.0,92,0.00,,CLR,0.00,0.00,VWS V14.01,2013-05-10 07:52:00,
2013-05-10 03:57:00,62.7,60.3,30.10,SSE,150,0.0,2.0,92,0.00,,CLR,0.00,0.00,VWS V14.01,2013-05-10 07:57:00,
2013-05-10 04:03:00,62.7,60.3,30.09,SSE,150,0.0,0.0,92,0.00,,CLR,0.00,0.00,VWS V14.01,2013-05-10 08:03:00,
2013-05-10 04:08:00,62.3,60.0,30.09,SSE,150,0.0,0.0,92,0.00,,CLR,0.00,0.00,VWS V14.01,2013-05-10 08:08:00,
2013-05-10 04:13:00,62.2,59.8,30.09,SSE,150,2.0,2.0,92,0.00,,CLR,0.00,0.00,VWS V14.01,2013-05-10 08:13:00,
2013-05-10 04:18:00,62.0,60.0,30.09,SSE,150,1.0,2.0,93,0.00,,CLR,0.00,0.00,VWS V14.01,2013-05-10 08:18:00,
2013-05-10 04:23:00,61.8,59.8,30.09,SSE,150,0.0,2.0,93,0.00,,CLR,0.00,0.00,VWS V14.01,2013-05-10 08:23:00,
2013-05-10 04:28:00,61.6,59.6,30.08,SSE,150,0.0,2.0,93,0.00,,CLR,0.00,0.00,VWS V14.01,2013-05-10 08:28:00,
2013-05-10 04:33:00,61.4,59.4,30.08,SSE,150,0.0,0.0,93,0.00,,CLR,0.00,0.00,VWS V14.01,2013-05-10 08:33:00,
2013-05-10 04:38:00,61.3,59.6,30.08,SSE,150,0.0,0.0,94,0.00,,CLR,0.00,0.00,VWS V14.01,2013-05-10 08:38:00,
2013-05-10 04:43:00,61.1,59.1,30.08,SSE,150,0.0,0.0,93,0.00,,CLR,0.00,0.00,VWS V14.01,2013-05-10 08:43:00,
2013-05-10 04:48:00,60.9,59.2,30.08,SSE,150,0.0,0.0,94,0.00,,CLR,0.00,0.00,VWS V14.01,2013-05-10 08:48:00,
2013-05-10 04:53:00,61.1,59.4,30.08,SSE,150,0.0,0.0,94,0.00,,CLR,0.00,0.00,VWS V14.01,2013-05-10 08:53:00,
2013-05-10 04:58:00,61.1,59.4,30.07,SSE,150,0.0,0.0,94,0.00,,CLR,0.00,0.00,VWS V14.01,2013-05-10 08:58:00,
2013-05-10 05:03:00,61.1,59.4,30.07,SSE,150,0.0,0.0,94,0.00,,CLR,0.00,0.00,VWS V14.01,2013-05-10 09:03:00,
2013-05-10 05:08:00,61.1,59.4,30.07,SSE,150,0.0,0.0,94,0.00,,CLR,0.00,0.00,VWS V14.01,2013-05-10 09:08:00,
2013-05-10 05:13:00,60.8,59.1,30.07,SSE,150,0.0,0.0,94,0.00,,CLR,0.00,0.00,VWS V14.01,2013-05-10 09:13:00,
2013-05-10 05:18:00,60.6,58.9,30.07,SSE,150,0.0,0.0,94,0.00,,CLR,0.00,0.00,VWS V14.01,2013-05-10 09:18:00,
2013-05-10 05:23:00,60.7,59.3,30.07,SSE,150,0.0,0.0,95,0.00,,CLR,0.00,0.00,VWS V14.01,2013-05-10 09:23:00,
2013-05-10 05:28:00,60.8,59.4,30.07,SSE,150,0.0,0.0,95,0.00,,CLR,0.00,0.00,VWS V14.01,2013-05-10 09:28:00,
2013-05-10 05:33:00,60.7,59.3,30.08,SSE,150,0.0,0.0,95,0.00,,CLR,0.00,0.00,VWS V14.01,2013-05-10 09:33:00,
2013-05-10 05:38:00,60.5,59.1,30.07,SSE,150,0.0,0.0,95,0.00,,CLR,0.00,0.00,VWS V14.01,2013-05-10 09:38:00,
2013-05-10 05:43:00,60.7,59.3,30.07,SSE,150,0.0,0.0,95,0.00,,CLR,0.00,0.00,VWS V14.01,2013-05-10 09:43:00,
2013-05-10 05:48:00,60.5,59.1,30.07,SSE,150,0.0,0.0,95,0.00,,CLR,0.00,0.00,VWS V14.01,2013-05-10 09:48:00,
2013-05-10 05:53:00,60.5,59.1,30.07,SSE,150,0.0,0.0,95,0.00,,CLR,0.00,0.00,VWS V14.01,2013-05-10 09:53:00,
2013-05-10 05:58:00,60.9,59.5,30.07,SSE,150,0.0,0.0,95,0.00,,CLR,0.00,0.00,VWS V14.01,2013-05-10 09:58:00,
2013-05-10 06:03:00,60.9,59.5,30.07,SSE,150,0.0,0.0,95,0.00,,CLR,0.00,0.00,VWS V14.01,2013-05-10 10:03:00,
2013-05-10 06:08:00,60.8,59.4,30.07,SSE,150,0.0,0.0,95,0.00,,CLR,0.00,0.00,VWS V14.01,2013-05-10 10:08:00,
2013-05-10 06:13:00,60.7,59.3,30.07,SSE,150,0.0,0.0,95,0.00,,CLR,0.00,0.00,VWS V14.01,2013-05-10 10:13:00,
2013-05-10 06:18:00,60.4,59.0,30.07,SSE,150,0.0,0.0,95,0.00,,CLR,0.00,0.00,VWS V14.01,2013-05-10 10:18:00,
2013-05-10 06:23:00,60.3,58.9,30.07,SSE,150,0.0,0.0,95,0.00,,CLR,0.00,0.00,VWS V14.01,2013-05-10 10:23:00,
2013-05-10 06:28:00,60.3,59.2,30.07,SSE,150,0.0,0.0,96,0.00,,CLR,0.00,0.00,VWS V14.01,2013-05-10 10:28:00,
2013-05-10 06:33:00,60.0,58.6,30.08,SSE,147,0.0,0.0,95,0.00,,CLR,0.00,0.00,VWS V14.01,2013-05-10 10:33:00,
2013-05-10 06:38:00,59.9,58.5,30.08,SE,143,0.0,0.0,95,0.00,,CLR,0.00,0.00,VWS V14.01,2013-05-10 10:38:00,
2013-05-10 06:43:00,60.0,58.6,30.08,NE,49,0.0,0.0,95,0.00,,CLR,0.00,5.00,VWS V14.01,2013-05-10 10:43:00,
2013-05-10 06:48:00,60.0,58.6,30.08,NE,53,0.0,0.0,95,0.00,,CLR,0.00,9.00,VWS V14.01,2013-05-10 10:48:00,
2013-05-10 06:54:00,60.0,58.9,30.08,NE,53,0.0,0.0,96,0.00,,CLR,0.00,12.00,VWS V14.01,2013-05-10 10:54:00,
2013-05-10 06:59:00,60.2,58.8,30.08,NE,53,0.0,0.0,95,0.00,,CLR,0.00,16.00,VWS V14.01,2013-05-10 10:59:00,
2013-05-10 07:04:00,60.5,59.4,30.08,ENE,76,0.0,1.0,96,0.00,,,0.00,19.00,VWS V14.01,2013-05-10 11:04:00,
2013-05-10 07:09:00,60.7,59.3,30.08,ENE,76,0.0,1.0,95,0.00,,,0.00,26.00,VWS V14.01,2013-05-10 11:09:00,
2013-05-10 07:14:00,61.0,59.9,30.08,ENE,76,0.0,1.0,96,0.00,,,0.00,39.00,VWS V14.01,2013-05-10 11:14:00,
2013-05-10 07:19:00,61.5,60.1,30.08,ENE,76,0.0,1.0,95,0.00,,,0.00,42.00,VWS V14.01,2013-05-10 11:19:00,
2013-05-10 07:24:00,62.1,60.7,30.08,ENE,76,0.0,1.0,95,0.00,,,0.00,53.00,VWS V14.01,2013-05-10 11:24:00,
2013-05-10 07:29:00,62.6,61.2,30.08,ENE,76,1.0,2.0,95,0.00,,,0.00,62.00,VWS V14.01,2013-05-10 11:29:00,
2013-05-10 07:34:00,63.0,61.5,30.08,ENE,76,0.0,1.0,95,0.00,,,0.00,74.00,VWS V14.01,2013-05-10 11:34:00,
2013-05-10 07:39:00,63.5,62.0,30.08,ENE,76,0.0,1.0,95,0.00,,,0.00,88.00,VWS V14.01,2013-05-10 11:39:00,
2013-05-10 07:44:00,64.0,62.5,30.08,ENE,76,0.0,1.0,95,0.00,,,0.00,105.00,VWS V14.01,2013-05-10 11:44:00,
2013-05-10 07:49:00,64.7,62.9,30.08,ENE,76,0.0,2.0,94,0.00,,,0.00,125.00,VWS V14.01,2013-05-10 11:49:00,
2013-05-10 07:54:00,65.2,63.4,30.08,ENE,76,0.0,2.0,94,0.00,,,0.00,135.00,VWS V14.01,2013-05-10 11:54:00,
2013-05-10 07:59:00,65.7,63.6,30.08,East,89,1.0,3.0,93,0.00,,FEW030,0.00,144.00,VWS V14.01,2013-05-10 11:59:00,
2013-05-10 08:04:00,66.3,64.2,30.09,East,89,0.0,2.0,93,0.00,,FEW030,0.00,146.00,VWS V14.01,2013-05-10 12:04:00,
2013-05-10 08:09:00,66.9,64.5,30.08,East,89,1.0,2.0,92,0.00,,FEW030,0.00,151.00,VWS V14.01,2013-05-10 12:09:00,
2013-05-10 08:14:00,67.7,65.3,30.08,East,100,0.0,3.0,92,0.00,,FEW030,0.00,179.00,VWS V14.01,2013-05-10 12:14:00,
2013-05-10 08:19:00,68.4,65.7,30.08,ESE,107,3.0,3.0,91,0.00,,FEW030,0.00,204.00,VWS V14.01,2013-05-10 12:19:00,
2013-05-10 08:24:00,69.1,66.1,30.08,East,85,0.0,5.0,90,0.00,,FEW030,0.00,230.00,VWS V14.01,2013-05-10 12:24:00,
2013-05-10 08:29:00,69.7,66.3,30.08,East,85,2.0,5.0,89,0.00,,FEW030,0.00,244.00,VWS V14.01,2013-05-10 12:29:00,
2013-05-10 08:34:00,70.4,67.0,30.08,SE,133,3.0,5.0,89,0.00,,FEW030,0.00,260.00,VWS V14.01,2013-05-10 12:34:00,
2013-05-10 08:39:00,71.0,67.3,30.08,ESE,112,4.0,7.0,88,0.00,,FEW030,0.00,278.00,VWS V14.01,2013-05-10 12:39:00,
2013-05-10 08:44:00,71.9,68.2,30.08,ESE,113,5.0,7.0,88,0.00,,FEW030,0.00,294.00,VWS V14.01,2013-05-10 12:44:00,
2013-05-10 08:49:00,72.3,67.9,30.09,ESE,109,4.0,10.0,86,0.00,,FEW030,0.00,311.00,VWS V14.01,2013-05-10 12:49:00,
2013-05-10 08:54:00,72.9,68.8,30.09,SE,146,5.0,10.0,87,0.00,,FEW030,0.00,320.00,VWS V14.01,2013-05-10 12:54:00,
2013-05-10 08:59:00,73.7,69.6,30.09,ESE,103,8.0,10.0,87,0.00,,CLR,0.00,352.00,VWS V14.01,2013-05-10 12:59:00,
2013-05-10 09:04:00,74.2,69.8,30.09,SE,130,5.0,9.0,86,0.00,,CLR,0.00,376.00,VWS V14.01,2013-05-10 13:04:00,
2013-05-10 09:09:00,74.7,69.9,30.09,East,101,6.0,9.0,85,0.00,,CLR,0.00,403.00,VWS V14.01,2013-05-10 13:09:00,
2013-05-10 09:14:00,75.4,70.6,30.09,ESE,123,7.0,10.0,85,0.00,,CLR,0.00,415.00,VWS V14.01,2013-05-10 13:14:00,
2013-05-10 09:19:00,75.8,70.6,30.08,SE,125,6.0,10.0,84,0.00,,CLR,0.00,429.00,VWS V14.01,2013-05-10 13:19:00,
2013-05-10 09:24:00,76.6,71.4,30.08,SE,140,14.0,14.0,84,0.00,,CLR,0.00,461.00,VWS V14.01,2013-05-10 13:24:00,
2013-05-10 09:30:00,76.8,70.9,30.08,SE,141,12.0,14.0,82,0.00,,CLR,0.00,492.00,VWS V14.01,2013-05-10 13:30:00,
2013-05-10 09:35:00,77.2,71.3,30.08,SE,137,11.0,13.0,82,0.00,,CLR,0.00,512.00,VWS V14.01,2013-05-10 13:35:00,
2013-05-10 09:40:00,77.5,71.2,30.08,SE,130,8.0,17.0,81,0.00,,CLR,0.00,540.00,VWS V14.01,2013-05-10 13:40:00,
2013-05-10 09:45:00,78.0,71.7,30.08,South,171,8.0,17.0,81,0.00,,CLR,0.00,541.00,VWS V14.01,2013-05-10 13:45:00,
2013-05-10 09:50:00,78.0,71.0,30.08,East,98,9.0,17.0,79,0.00,,CLR,0.00,540.00,VWS V14.01,2013-05-10 13:50:00,
2013-05-10 09:55:00,78.4,71.7,30.08,SE,126,7.0,17.0,80,0.00,,CLR,0.00,570.00,VWS V14.01,2013-05-10 13:55:00,
2013-05-10 10:00:00,78.8,71.4,30.08,SE,131,8.0,17.0,78,0.00,,CLR,0.00,582.00,VWS V14.01,2013-05-10 14:00:00,
2013-05-10 10:05:00,79.1,71.3,30.08,SE,136,10.0,13.0,77,0.00,,CLR,0.00,606.00,VWS V14.01,2013-05-10 14:05:00,
2013-05-10 10:10:00,79.3,70.3,30.08,SE,146,8.0,17.0,74,0.00,,CLR,0.00,624.00,VWS V14.01,2013-05-10 14:10:00,
2013-05-10 10:15:00,79.6,70.6,30.08,SE,136,7.0,17.0,74,0.00,,CLR,0.00,628.00,VWS V14.01,2013-05-10 14:15:00,
2013-05-10 10:20:00,80.0,69.8,30.08,SE,128,8.0,17.0,71,0.00,,CLR,0.00,661.00,VWS V14.01,2013-05-10 14:20:00,
2013-05-10 10:25:00,80.3,69.2,30.08,SE,137,8.0,17.0,69,0.00,,CLR,0.00,642.00,VWS V14.01,2013-05-10 14:25:00,
2013-05-10 10:30:00,80.5,69.4,30.08,SE,126,8.0,17.0,69,0.00,,CLR,0.00,661.00,VWS V14.01,2013-05-10 14:30:00,
2013-05-10 10:35:00,80.9,68.0,30.08,SE,127,11.0,16.0,65,0.00,,CLR,0.00,686.00,VWS V14.01,2013-05-10 14:35:00,
2013-05-10 10:40:00,81.2,69.2,30.07,ESE,105,12.0,16.0,67,0.00,,CLR,0.00,744.00,VWS V14.01,2013-05-10 14:40:00,
2013-05-10 10:45:00,81.4,68.5,30.08,ESE,111,9.0,16.0,65,0.00,,CLR,0.00,731.00,VWS V14.01,2013-05-10 14:45:00,
2013-05-10 10:50:00,81.8,69.3,30.08,ESE,123,14.0,17.0,66,0.00,,CLR,0.00,745.00,VWS V14.01,2013-05-10 14:50:00,
2013-05-10 10:55:00,82.5,69.1,30.08,ESE,111,9.0,17.0,64,0.00,,CLR,0.00,735.00,VWS V14.01,2013-05-10 14:55:00,
2013-05-10 11:00:00,82.1,68.3,30.08,ESE,112,9.0,17.0,63,0.00,,FEW040,0.00,740.00,VWS V14.01,2013-05-10 15:00:00,
2013-05-10 11:05:00,82.6,69.2,30.08,ESE,103,11.0,14.0,64,0.00,,FEW040,0.00,784.00,VWS V14.01,2013-05-10 15:05:00,
2013-05-10 11:10:00,82.5,69.1,30.08,South,175,5.0,16.0,64,0.00,,FEW040,0.00,793.00,VWS V14.01,2013-05-10 15:10:00,
2013-05-10 11:15:00,82.4,69.0,30.08,SE,136,9.0,16.0,64,0.00,,FEW040,0.00,907.00,VWS V14.01,2013-05-10 15:15:00,
2013-05-10 11:20:00,82.4,69.0,30.08,SE,131,9.0,16.0,64,0.00,,FEW040,0.00,784.00,VWS V14.01,2013-05-10 15:20:00,
2013-05-10 11:25:00,82.7,69.3,30.08,ESE,117,7.0,16.0,64,0.00,,FEW040,0.00,705.00,VWS V14.01,2013-05-10 15:25:00,
2013-05-10 11:30:00,82.0,68.6,30.08,SE,128,6.0,16.0,64,0.00,,FEW040,0.00,239.00,VWS V14.01,2013-05-10 15:30:00,
2013-05-10 11:35:00,83.1,70.1,30.08,ESE,119,12.0,15.0,65,0.00,,FEW040,0.00,830.00,VWS V14.01,2013-05-10 15:35:00,
2013-05-10 11:40:00,83.0,68.2,30.09,ESE,117,12.0,18.0,61,0.00,,FEW040,0.00,373.00,VWS V14.01,2013-05-10 15:40:00,
2013-05-10 11:45:00,82.6,67.3,30.08,SSE,162,11.0,18.0,60,0.00,,FEW040,0.00,322.00,VWS V14.01,2013-05-10 15:45:00,
2013-05-10 11:51:00,82.9,67.6,30.09,SE,144,12.0,18.0,60,0.00,,FEW040,0.00,322.00,VWS V14.01,2013-05-10 15:51:00,
2013-05-10 11:56:00,82.8,68.0,30.09,SE,144,6.0,18.0,61,0.00,,FEW040,0.00,322.00,VWS V14.01,2013-05-10 15:56:00,
2013-05-10 12:01:00,84.1,68.2,30.09,SSW,209,7.0,18.0,59,0.00,,SCT055,0.00,1009.00,VWS V14.01,2013-05-10 16:01:00,
2013-05-10 12:06:00,83.4,67.1,30.09,SSW,206,4.0,9.0,58,0.00,,SCT055,0.00,248.00,VWS V14.01,2013-05-10 16:06:00,
2013-05-10 12:11:00,82.9,66.6,30.09,SE,144,8.0,13.0,58,0.00,,SCT055,0.00,260.00,VWS V14.01,2013-05-10 16:11:00,
2013-05-10 12:16:00,85.1,68.2,30.09,SE,140,7.0,13.0,57,0.00,,SCT055,0.00,967.00,VWS V14.01,2013-05-10 16:16:00,
2013-05-10 12:21:00,85.7,68.2,30.09,SE,138,6.0,15.0,56,0.00,,SCT055,0.00,928.00,VWS V14.01,2013-05-10 16:21:00,
2013-05-10 12:26:00,85.5,67.0,30.09,SSE,155,11.0,15.0,54,0.00,,SCT055,0.00,970.00,VWS V14.01,2013-05-10 16:26:00,
2013-05-10 12:31:00,85.5,67.5,30.09,SE,142,6.0,6.0,55,0.00,,SCT055,0.00,965.00,VWS V14.01,2013-05-10 16:31:00,
2013-05-10 12:36:00,85.1,67.1,30.09,SSE,147,4.0,12.0,55,0.00,,SCT055,0.00,236.00,VWS V14.01,2013-05-10 16:36:00,
2013-05-10 12:41:00,85.6,67.6,30.08,ESE,115,14.0,16.0,55,0.00,,SCT055,0.00,1039.00,VWS V14.01,2013-05-10 16:41:00,
2013-05-10 12:46:00,84.9,68.5,30.08,SE,134,7.0,16.0,58,0.00,,SCT055,0.00,348.00,VWS V14.01,2013-05-10 16:46:00,
2013-05-10 12:51:00,85.8,68.3,30.08,SE,142,6.0,16.0,56,0.00,,SCT055,0.00,1039.00,VWS V14.01,2013-05-10 16:51:00,
2013-05-10 12:56:00,85.9,67.9,30.08,SSE,159,6.0,16.0,55,0.00,,SCT055,0.00,1039.00,VWS V14.01,2013-05-10 16:56:00,
2013-05-10 13:01:00,85.9,66.8,30.08,SW,225,6.0,7.0,53,0.00,,SCT060,0.00,1076.00,VWS V14.01,2013-05-10 17:01:00,
2013-05-10 13:06:00,84.5,67.1,30.08,SE,132,3.0,13.0,56,0.00,,SCT060,0.00,320.00,VWS V14.01,2013-05-10 17:06:00,
2013-05-10 13:11:00,85.9,68.4,30.08,SE,132,7.0,13.0,56,0.00,,SCT060,0.00,1060.00,VWS V14.01,2013-05-10 17:11:00,
2013-05-10 13:16:00,86.1,66.4,30.08,SSE,161,6.0,13.0,52,0.00,,SCT060,0.00,1058.00,VWS V14.01,2013-05-10 17:16:00,
2013-05-10 13:21:00,86.8,67.6,30.08,ESE,121,7.0,13.0,53,0.00,,SCT060,0.00,1109.00,VWS V14.01,2013-05-10 17:21:00,
2013-05-10 13:26:00,85.7,67.7,30.08,SSE,167,7.0,13.0,55,0.00,,SCT060,0.00,311.00,VWS V14.01,2013-05-10 17:26:00,
2013-05-10 13:31:00,86.1,67.0,30.08,SSE,151,5.0,7.0,53,0.00,,SCT060,0.00,276.00,VWS V14.01,2013-05-10 17:31:00,
2013-05-10 13:36:00,85.9,66.8,30.08,SSE,156,4.0,13.0,53,0.00,,SCT060,0.00,295.00,VWS V14.01,2013-05-10 17:36:00,
2013-05-10 13:41:00,85.1,66.6,30.07,SE,139,7.0,13.0,54,0.00,,SCT060,0.00,244.00,VWS V14.01,2013-05-10 17:41:00,
2013-05-10 13:46:00,87.2,66.9,30.07,WNW,288,4.0,13.0,51,0.00,,SCT060,0.00,988.00,VWS V14.01,2013-05-10 17:46:00,
2013-05-10 13:51:00,87.8,67.4,30.07,WSW,237,5.0,13.0,51,0.00,,SCT060,0.00,956.00,VWS V14.01,2013-05-10 17:51:00,
2013-05-10 13:56:00,88.1,66.0,30.07,SSW,194,3.0,13.0,48,0.00,,SCT060,0.00,911.00,VWS V14.01,2013-05-10 17:56:00,
2013-05-10 14:01:00,87.8,68.0,30.07,South,184,5.0,9.0,52,0.00,,SCT060,0.00,853.00,VWS V14.01,2013-05-10 18:01:00,
2013-05-10 14:06:00,87.9,67.5,30.06,SSW,210,6.0,9.0,51,0.00,,SCT060,0.00,812.00,VWS V14.01,2013-05-10 18:06:00,
2013-05-10 14:12:00,88.3,67.3,30.06,SSE,163,4.0,9.0,50,0.00,,SCT060,0.00,251.00,VWS V14.01,2013-05-10 18:12:00,
2013-05-10 14:17:00,87.8,66.9,30.06,SE,140,5.0,9.0,50,0.00,,SCT060,0.00,807.00,VWS V14.01,2013-05-10 18:17:00,
2013-05-10 14:22:00,88.5,67.5,30.06,SSW,201,5.0,9.0,50,0.00,,SCT060,0.00,900.00,VWS V14.01,2013-05-10 18:22:00,
2013-05-10 14:27:00,88.7,65.9,30.06,SSW,202,9.0,10.0,47,0.00,,SCT060,0.00,953.00,VWS V14.01,2013-05-10 18:27:00,
2013-05-10 14:32:00,88.9,65.5,30.05,SSW,204,3.0,8.0,46,0.00,,SCT060,0.00,984.00,VWS V14.01,2013-05-10 18:32:00,
2013-05-10 14:37:00,88.7,65.3,30.05,SW,223,2.0,14.0,46,0.00,,SCT060,0.00,302.00,VWS V14.01,2013-05-10 18:37:00,
2013-05-10 14:42:00,88.5,66.9,30.04,SSW,200,4.0,15.0,49,0.00,,SCT060,0.00,1002.00,VWS V14.01,2013-05-10 18:42:00,
2013-05-10 14:47:00,87.2,65.7,30.04,South,169,7.0,15.0,49,0.00,,SCT060,0.00,283.00,VWS V14.01,2013-05-10 18:47:00,
2013-05-10 14:52:00,87.5,66.0,30.04,SSW,210,7.0,15.0,49,0.00,,SCT060,0.00,895.00,VWS V14.01,2013-05-10 18:52:00,
2013-05-10 14:57:00,87.9,64.6,30.04,SSW,200,8.0,15.0,46,0.00,,SCT060,0.00,965.00,VWS V14.01,2013-05-10 18:57:00,
2013-05-10 15:02:00,88.4,64.4,30.04,SSW,203,5.0,7.0,45,0.00,,BKN060,0.00,991.00,VWS V14.01,2013-05-10 19:02:00,
2013-05-10 15:07:00,87.7,65.0,30.04,WSW,238,10.0,11.0,47,0.00,,BKN060,0.00,392.00,VWS V14.01,2013-05-10 19:07:00,
2013-05-10 15:12:00,89.0,67.4,30.04,SSE,159,3.0,11.0,49,0.00,,BKN060,0.00,956.00,VWS V14.01,2013-05-10 19:12:00,
2013-05-10 15:17:00,88.5,68.1,30.03,South,188,3.0,11.0,51,0.00,,BKN060,0.00,258.00,VWS V14.01,2013-05-10 19:17:00,
2013-05-10 15:22:00,87.8,65.7,30.03,SW,236,12.0,12.0,48,0.00,,BKN060,0.00,320.00,VWS V14.01,2013-05-10 19:22:00,
2013-05-10 15:27:00,89.3,65.8,30.03,SW,236,5.0,15.0,46,0.00,,BKN060,0.00,919.00,VWS V14.01,2013-05-10 19:27:00,
2013-05-10 15:32:00,88.7,65.3,30.03,WSW,250,6.0,8.0,46,0.00,,BKN060,0.00,302.00,VWS V14.01,2013-05-10 19:32:00,
2013-05-10 15:37:00,87.7,64.4,30.03,WSW,246,3.0,11.0,46,0.00,,BKN060,0.00,178.00,VWS V14.01,2013-05-10 19:37:00,
2013-05-10 15:42:00,87.1,65.1,30.03,West,266,7.0,11.0,48,0.00,,BKN060,0.00,229.00,VWS V14.01,2013-05-10 19:42:00,
2013-05-10 15:47:00,86.8,65.4,30.03,West,276,8.0,12.0,49,0.00,,BKN060,0.00,199.00,VWS V14.01,2013-05-10 19:47:00,
2013-05-10 15:52:00,86.6,65.8,30.03,WNW,288,6.0,12.0,50,0.00,,BKN060,0.00,193.00,VWS V14.01,2013-05-10 19:52:00,
2013-05-10 15:57:00,86.8,66.5,30.03,West,259,7.0,20.0,51,0.00,,BKN060,0.00,308.00,VWS V14.01,2013-05-10 19:57:00,
2013-05-10 16:02:00,87.7,67.9,30.03,West,275,11.0,13.0,52,0.00,,SCT060,0.00,846.00,VWS V14.01,2013-05-10 20:02:00,
2013-05-10 16:07:00,88.6,67.6,30.03,West,262,8.0,14.0,50,0.00,,SCT060,0.00,329.00,VWS V14.01,2013-05-10 20:07:00,
2013-05-10 16:12:00,87.5,66.6,30.02,West,281,8.0,14.0,50,0.00,,SCT060,0.00,288.00,VWS V14.01,2013-05-10 20:12:00,
2013-05-10 16:17:00,86.5,66.2,30.02,WSW,253,8.0,15.0,51,0.00,,SCT060,0.00,211.00,VWS V14.01,2013-05-10 20:17:00,
2013-05-10 16:23:00,86.1,66.4,30.02,SSW,207,6.0,15.0,52,0.00,,SCT060,0.00,209.00,VWS V14.01,2013-05-10 20:23:00,
2013-05-10 16:28:00,85.6,67.1,30.02,SSW,208,7.0,15.0,54,0.00,,SCT060,0.00,172.00,VWS V14.01,2013-05-10 20:28:00,
2013-05-10 16:33:00,84.7,67.3,30.02,SW,231,9.0,10.0,56,0.00,,SCT060,0.00,132.00,VWS V14.01,2013-05-10 20:33:00,
2013-05-10 16:38:00,84.1,67.2,30.02,WSW,248,13.0,19.0,57,0.00,,SCT060,0.00,125.00,VWS V14.01,2013-05-10 20:38:00,
2013-05-10 16:43:00,82.5,67.7,30.03,WSW,254,21.0,21.0,61,0.00,,SCT060,0.00,125.00,VWS V14.01,2013-05-10 20:43:00,
2013-05-10 16:48:00,78.0,69.1,30.03,SW,234,7.0,21.0,74,0.02,,SCT060,0.02,144.00,VWS V14.01,2013-05-10 20:48:00,
2013-05-10 16:53:00,75.8,69.2,30.03,SW,232,7.0,21.0,80,0.04,,SCT060,0.04,151.00,VWS V14.01,2013-05-10 20:53:00,
2013-05-10 16:58:00,75.2,69.3,30.03,WNW,292,3.0,21.0,82,0.06,,SCT060,0.06,155.00,VWS V14.01,2013-05-10 20:58:00,
2013-05-10 17:03:00,75.5,70.0,30.03,WNW,282,5.0,6.0,83,0.06,,SCT060,0.06,142.00,VWS V14.01,2013-05-10 21:03:00,
2013-05-10 17:08:00,75.7,69.8,30.02,WNW,288,6.0,8.0,82,0.06,,SCT060,0.06,151.00,VWS V14.01,2013-05-10 21:08:00,
2013-05-10 17:13:00,76.9,69.5,30.02,WNW,294,3.0,8.0,78,0.06,,SCT060,0.06,218.00,VWS V14.01,2013-05-10 21:13:00,
2013-05-10 17:18:00,77.7,70.7,30.02,West,272,3.0,8.0,79,0.06,,SCT060,0.06,309.00,VWS V14.01,2013-05-10 21:18:00,
2013-05-10 17:23:00,79.0,71.9,30.02,West,269,1.0,8.0,79,0.06,,SCT060,0.06,272.00,VWS V14.01,2013-05-10 21:23:00,
2013-05-10 17:28:00,80.9,71.0,30.02,West,262,3.0,8.0,72,0.06,,SCT060,0.06,450.00,VWS V14.01,2013-05-10 21:28:00,
2013-05-10 17:33:00,81.5,71.2,30.02,WSW,243,2.0,6.0,71,0.06,,SCT060,0.06,380.00,VWS V14.01,2013-05-10 21:33:00,
2013-05-10 17:38:00,81.7,71.0,30.01,West,269,4.0,9.0,70,0.06,,SCT060,0.06,330.00,VWS V14.01,2013-05-10 21:38:00,
2013-05-10 17:43:00,82.1,72.6,30.02,West,269,3.0,9.0,73,0.06,,SCT060,0.06,322.00,VWS V14.01,2013-05-10 21:43:00,
2013-05-10 17:48:00,82.0,71.3,30.02,West,263,5.0,9.0,70,0.06,,SCT060,0.06,207.00,VWS V14.01,2013-05-10 21:48:00,
2013-05-10 17:53:00,81.8,70.6,30.01,West,280,4.0,9.0,69,0.06,,SCT060,0.06,244.00,VWS V14.01,2013-05-10 21:53:00,
2013-05-10 17:58:00,81.6,70.0,30.01,WNW,285,6.0,9.0,68,0.06,,SCT060,0.06,250.00,VWS V14.01,2013-05-10 21:58:00,
2013-05-10 17:59:00,81.6,70.0,30.01,WNW,284,4.0,9.0,68,0.06,,SCT060,0.06,246.00,VWS V14.01,2013-05-10 21:59:00,
2013-05-10 18:04:00,81.5,69.1,30.01,West,279,7.0,10.0,66,0.00,,FEW095,0.06,209.00,VWS V14.01,2013-05-10 22:04:00,
2013-05-10 18:09:00,81.5,68.2,30.00,WNW,290,11.0,12.0,64,0.00,,FEW095,0.06,167.00,VWS V14.01,2013-05-10 22:09:00,
2013-05-10 18:14:00,81.4,67.1,30.00,WNW,286,5.0,14.0,62,0.00,,FEW095,0.06,151.00,VWS V14.01,2013-05-10 22:14:00,
2013-05-10 18:19:00,81.5,67.2,30.00,NW,315,4.0,14.0,62,0.00,,FEW095,0.06,211.00,VWS V14.01,2013-05-10 22:19:00,
2013-05-10 18:24:00,81.7,66.9,30.00,West,279,7.0,14.0,61,0.00,,FEW095,0.06,155.00,VWS V14.01,2013-05-10 22:24:00,
2013-05-10 18:29:00,81.6,66.9,30.00,WNW,296,5.0,14.0,61,0.00,,FEW095,0.06,141.00,VWS V14.01,2013-05-10 22:29:00,
2013-05-10 18:34:00,81.4,67.1,30.00,WNW,289,7.0,9.0,62,0.00,,FEW095,0.06,137.00,VWS V14.01,2013-05-10 22:34:00,
2013-05-10 18:39:00,81.2,66.9,30.00,WNW,292,6.0,9.0,62,0.00,,FEW095,0.06,123.00,VWS V14.01,2013-05-10 22:39:00,
2013-05-10 18:44:00,81.2,66.9,30.00,WNW,284,9.0,12.0,62,0.00,,FEW095,0.06,113.00,VWS V14.01,2013-05-10 22:44:00,
2013-05-10 18:49:00,80.9,66.7,30.00,West,278,9.0,12.0,62,0.00,,FEW095,0.06,102.00,VWS V14.01,2013-05-10 22:49:00,
2013-05-10 18:54:00,80.7,66.5,30.00,WSW,254,10.0,16.0,62,0.00,,FEW095,0.06,97.00,VWS V14.01,2013-05-10 22:54:00,
2013-05-10 18:59:00,80.5,66.3,30.00,West,259,5.0,16.0,62,0.00,,CLR,0.06,91.00,VWS V14.01,2013-05-10 22:59:00,
2013-05-10 19:04:00,80.3,66.6,30.00,West,281,6.0,9.0,63,0.00,,CLR,0.06,86.00,VWS V14.01,2013-05-10 23:04:00,
2013-05-10 19:09:00,80.2,66.5,30.00,West,270,6.0,9.0,63,0.00,,CLR,0.06,81.00,VWS V14.01,2013-05-10 23:09:00,
2013-05-10 19:14:00,80.0,66.7,30.00,WNW,292,4.0,9.0,64,0.00,,CLR,0.06,77.00,VWS V14.01,2013-05-10 23:14:00,
2013-05-10 19:19:00,80.0,66.3,30.00,WNW,286,2.0,9.0,63,0.00,,CLR,0.06,72.00,VWS V14.01,2013-05-10 23:19:00,
2013-05-10 19:24:00,79.8,66.1,30.00,WNW,297,4.0,9.0,63,0.00,,CLR,0.06,63.00,VWS V14.01,2013-05-10 23:24:00,
2013-05-10 19:29:00,79.7,66.0,30.00,WNW,285,4.0,9.0,63,0.00,,CLR,0.06,56.00,VWS V14.01,2013-05-10 23:29:00,
2013-05-10 19:34:00,79.4,66.2,30.00,West,268,1.0,4.0,64,0.00,,CLR,0.06,42.00,VWS V14.01,2013-05-10 23:34:00,
2013-05-10 19:39:00,79.3,65.6,30.00,WNW,290,1.0,7.0,63,0.00,,CLR,0.06,28.00,VWS V14.01,2013-05-10 23:39:00,
2013-05-10 19:44:00,79.0,65.8,30.00,WNW,291,3.0,7.0,64,0.00,,CLR,0.06,21.00,VWS V14.01,2013-05-10 23:44:00,
2013-05-10 19:49:00,78.7,66.0,30.00,WNW,288,1.0,7.0,65,0.00,,CLR,0.06,18.00,VWS V14.01,2013-05-10 23:49:00,
2013-05-10 19:54:00,78.0,65.7,30.00,WNW,288,0.0,7.0,66,0.00,,CLR,0.06,12.00,VWS V14.01,2013-05-10 23:54:00,
2013-05-10 20:00:00,77.3,65.5,30.00,WNW,288,1.0,7.0,67,0.00,,CLR,0.06,9.00,VWS V14.01,2013-05-11 00:00:00,
2013-05-10 20:05:00,77.0,65.6,30.00,WNW,288,0.0,1.0,68,0.00,,CLR,0.06,5.00,VWS V14.01,2013-05-11 00:05:00,
2013-05-10 20:10:00,77.1,65.7,30.00,WNW,288,0.0,2.0,68,0.00,,CLR,0.06,0.00,VWS V14.01,2013-05-11 00:10:00,
2013-05-10 20:15:00,77.3,65.5,30.01,WNW,288,0.0,2.0,67,0.00,,CLR,0.06,0.00,VWS V14.01,2013-05-11 00:15:00,
2013-05-10 20:20:00,77.0,65.6,30.01,WNW,288,0.0,2.0,68,0.00,,CLR,0.06,0.00,VWS V14.01,2013-05-11 00:20:00,
2013-05-10 20:25:00,76.7,65.3,30.01,WNW,288,0.0,2.0,68,0.00,,CLR,0.06,0.00,VWS V14.01,2013-05-11 00:25:00,
2013-05-10 20:30:00,76.1,65.6,30.01,WNW,288,0.0,2.0,70,0.00,,CLR,0.06,0.00,VWS V14.01,2013-05-11 00:30:00,
2013-05-10 20:35:00,76.1,65.2,30.01,WNW,288,0.0,0.0,69,0.00,,CLR,0.06,0.00,VWS V14.01,2013-05-11 00:35:00,
2013-05-10 20:40:00,75.4,65.3,30.01,WNW,288,0.0,0.0,71,0.00,,CLR,0.06,0.00,VWS V14.01,2013-05-11 00:40:00,
2013-05-10 20:45:00,74.7,65.5,30.02,WNW,288,0.0,0.0,73,0.00,,CLR,0.06,0.00,VWS V14.01,2013-05-11 00:45:00,
2013-05-10 20:50:00,74.6,65.4,30.02,WNW,288,0.0,0.0,73,0.00,,CLR,0.06,0.00,VWS V14.01,2013-05-11 00:50:00,
2013-05-10 20:55:00,74.4,65.6,30.02,WNW,288,0.0,0.0,74,0.00,,CLR,0.06,0.00,VWS V14.01,2013-05-11 00:55:00,
2013-05-10 21:00:00,73.5,65.1,30.02,WNW,288,0.0,0.0,75,0.00,,CLR,0.06,0.00,VWS V14.01,2013-05-11 01:00:00,
2013-05-10 21:05:00,73.1,65.1,30.02,WNW,288,0.0,0.0,76,0.00,,CLR,0.06,0.00,VWS V14.01,2013-05-11 01:05:00,
2013-05-10 21:10:00,72.7,65.4,30.02,WNW,288,0.0,0.0,78,0.00,,CLR,0.06,0.00,VWS V14.01,2013-05-11 01:10:00,
2013-05-10 21:15:00,72.6,66.1,30.02,WNW,288,0.0,0.0,80,0.00,,CLR,0.06,0.00,VWS V14.01,2013-05-11 01:15:00,
2013-05-10 21:20:00,72.5,66.7,30.02,WNW,288,0.0,1.0,82,0.00,,CLR,0.06,0.00,VWS V14.01,2013-05-11 01:20:00,
2013-05-10 21:25:00,72.1,66.7,30.02,WNW,288,0.0,1.0,83,0.00,,CLR,0.06,0.00,VWS V14.01,2013-05-11 01:25:00,
2013-05-10 21:30:00,72.1,66.3,30.02,WNW,288,0.0,1.0,82,0.00,,CLR,0.06,0.00,VWS V14.01,2013-05-11 01:30:00,
2013-05-10 21:35:00,72.0,65.9,30.02,WNW,288,0.0,0.0,81,0.00,,CLR,0.06,0.00,VWS V14.01,2013-05-11 01:35:00,
2013-05-10 21:40:00,71.7,65.9,30.03,WNW,288,0.0,0.0,82,0.00,,CLR,0.06,0.00,VWS V14.01,2013-05-11 01:40:00,
2013-05-10 21:45:00,71.4,65.6,30.02,WNW,288,0.0,0.0,82,0.00,,CLR,0.06,0.00,VWS V14.01,2013-05-11 01:45:00,
2013-05-10 21:50:00,71.2,65.8,30.02,WNW,288,0.0,0.0,83,0.00,,CLR,0.06,0.00,VWS V14.01,2013-05-11 01:50:00,
2013-05-10 21:55:00,71.0,65.6,30.02,WNW,288,0.0,0.0,83,0.00,,CLR,0.06,0.00,VWS V14.01,2013-05-11 01:55:00,
2013-05-10 22:00:00,71.0,66.3,30.02,WNW,288,0.0,0.0,85,0.00,,CLR,0.06,0.00,VWS V14.01,2013-05-11 02:00:00,
2013-05-10 22:05:00,70.9,66.5,30.02,WNW,288,0.0,0.0,86,0.00,,CLR,0.06,0.00,VWS V14.01,2013-05-11 02:05:00,
2013-05-10 22:10:00,71.0,66.9,30.03,WNW,288,0.0,0.0,87,0.00,,CLR,0.06,0.00,VWS V14.01,2013-05-11 02:10:00,
2013-05-10 22:15:00,70.8,66.7,30.03,WNW,288,0.0,0.0,87,0.00,,CLR,0.06,0.00,VWS V14.01,2013-05-11 02:15:00,
2013-05-10 22:20:00,70.7,66.7,30.03,WNW,288,0.0,0.0,87,0.00,,CLR,0.06,0.00,VWS V14.01,2013-05-11 02:20:00,
2013-05-10 22:25:00,70.3,66.2,30.03,WNW,288,0.0,0.0,87,0.00,,CLR,0.06,0.00,VWS V14.01,2013-05-11 02:25:00,
2013-05-10 22:31:00,70.0,66.0,30.03,WNW,288,0.0,0.0,87,0.00,,CLR,0.06,0.00,VWS V14.01,2013-05-11 02:31:00,
2013-05-10 22:36:00,70.2,66.5,30.03,WNW,288,0.0,0.0,88,0.00,,CLR,0.06,0.00,VWS V14.01,2013-05-11 02:36:00,
2013-05-10 22:41:00,70.3,66.6,30.04,WNW,288,0.0,0.0,88,0.00,,CLR,0.06,0.00,VWS V14.01,2013-05-11 02:41:00,
2013-05-10 22:46:00,70.3,66.2,30.04,WNW,288,0.0,0.0,87,0.00,,CLR,0.06,0.00,VWS V14.01,2013-05-11 02:46:00,
2013-05-10 22:51:00,70.1,66.1,30.04,WNW,288,0.0,0.0,87,0.00,,CLR,0.06,0.00,VWS V14.01,2013-05-11 02:51:00,
2013-05-10 22:56:00,70.2,66.2,30.04,WNW,288,0.0,0.0,87,0.00,,CLR,0.06,0.00,VWS V14.01,2013-05-11 02:56:00,
2013-05-10 23:01:00,70.3,66.6,30.04,WNW,288,0.0,1.0,88,0.00,,CLR,0.06,0.00,VWS V14.01,2013-05-11 03:01:00,
2013-05-10 23:06:00,70.2,66.2,30.04,WNW,288,1.0,1.0,87,0.00,,CLR,0.06,0.00,VWS V14.01,2013-05-11 03:06:00,
2013-05-10 23:11:00,70.1,66.1,30.04,WNW,288,0.0,2.0,87,0.00,,CLR,0.06,0.00,VWS V14.01,2013-05-11 03:11:00,
2013-05-10 23:16:00,70.2,66.5,30.05,WSW,242,1.0,2.0,88,0.00,,CLR,0.06,0.00,VWS V14.01,2013-05-11 03:16:00,
2013-05-10 23:21:00,70.5,66.8,30.04,WSW,242,0.0,2.0,88,0.00,,CLR,0.06,0.00,VWS V14.01,2013-05-11 03:21:00,
2013-05-10 23:26:00,70.2,66.5,30.05,WSW,242,1.0,2.0,88,0.00,,CLR,0.06,0.00,VWS V14.01,2013-05-11 03:26:00,
2013-05-10 23:31:00,70.0,66.0,30.05,WSW,239,1.0,2.0,87,0.00,,CLR,0.06,0.00,VWS V14.01,2013-05-11 03:31:00,
2013-05-10 23:36:00,70.2,65.8,30.05,WSW,240,0.0,2.0,86,0.00,,CLR,0.06,0.00,VWS V14.01,2013-05-11 03:36:00,
2013-05-10 23:41:00,70.4,65.7,30.05,WSW,240,0.0,2.0,85,0.00,,CLR,0.06,0.00,VWS V14.01,2013-05-11 03:41:00,
2013-05-10 23:46:00,70.1,65.4,30.04,WSW,240,0.0,2.0,85,0.00,,CLR,0.06,0.00,VWS V14.01,2013-05-11 03:46:00,
2013-05-10 23:51:00,69.7,65.3,30.04,WSW,240,0.0,2.0,86,0.00,,CLR,0.06,0.00,VWS V14.01,2013-05-11 03:51:00,
2013-05-10 23:56:00,69.3,65.3,30.05,WSW,240,0.0,2.0,87,0.00,,CLR,0.06,0.00,VWS V14.01,2013-05-11 03:56:00,